createdAt,value
2022-11-08T00:02:05.484Z,100939.66
2022-11-08T00:04:32.253Z,100940.03
2022-11-08T00:07:17.444Z,100947.63
2022-11-08T00:10:02.721Z,100946.34
2022-11-08T00:12:47.589Z,100941.03
2022-11-08T00:15:14.122Z,100945.41
2022-11-08T00:17:40.676Z,100955.38
2022-11-08T00:20:08.892Z,100942.44
2022-11-08T00:22:35.433Z,100937.25
2022-11-08T00:25:01.986Z,100949.03
2022-11-08T00:27:28.475Z,100950.75
2022-11-08T00:29:55.041Z,100953.34
2022-11-08T00:32:24.280Z,100951.41
2022-11-08T00:34:52.945Z,100955.13
2022-11-08T00:37:20.952Z,100953.88
2022-11-08T00:39:48.124Z,100950.78
2022-11-08T00:42:15.074Z,100948.31
2022-11-08T00:44:41.724Z,100961.69
2022-11-08T00:47:08.239Z,100953.09
2022-11-08T00:49:35.022Z,100948.06
2022-11-08T00:52:01.659Z,100951.59
2022-11-08T00:54:28.203Z,100948.94
2022-11-08T00:56:54.709Z,100953.38
2022-11-08T00:59:21.276Z,100950.72
2022-11-08T01:01:48.437Z,100954.31
2022-11-08T01:04:18.593Z,100945.91
2022-11-08T01:06:45.647Z,100938.94
2022-11-08T01:09:12.708Z,100949.41
2022-11-08T01:11:40.132Z,100954.81
2022-11-08T01:14:06.699Z,100959.34
2022-11-08T01:16:34.257Z,100959.19
2022-11-08T01:19:02.351Z,100960.00
2022-11-08T01:21:29.478Z,100942.22
2022-11-08T01:23:56.461Z,100942.09
2022-11-08T01:26:27.969Z,100940.06
2022-11-08T01:28:56.241Z,100942.59
2022-11-08T01:31:28.732Z,100939.75
2022-11-08T01:33:56.490Z,100935.31
2022-11-08T01:36:25.948Z,100944.94
2022-11-08T01:38:53.227Z,100943.00
2022-11-08T01:41:21.773Z,100937.47
2022-11-08T01:43:55.629Z,100936.69
2022-11-08T01:46:35.880Z,100937.41
2022-11-08T01:49:30.150Z,100940.00
2022-11-08T01:52:14.685Z,100932.97
2022-11-08T01:55:02.599Z,100934.69
2022-11-08T01:57:53.248Z,100938.19
2022-11-08T02:00:19.997Z,100939.00
2022-11-08T02:02:51.622Z,100925.72
2022-11-08T02:05:25.530Z,100928.28
2022-11-08T02:08:01.278Z,100927.44
2022-11-08T02:10:34.648Z,100923.19
2022-11-08T02:13:04.933Z,100922.25
2022-11-08T02:15:31.961Z,100916.59
2022-11-08T02:17:58.588Z,100917.31
2022-11-08T02:20:25.139Z,100924.34
2022-11-08T02:23:12.069Z,100922.50
2022-11-08T02:25:38.657Z,100925.44
2022-11-08T02:28:05.206Z,100931.75
2022-11-08T02:30:36.370Z,100921.97
2022-11-08T02:33:16.320Z,100925.63
2022-11-08T02:35:46.433Z,100924.78
2022-11-08T02:38:12.913Z,100925.72
2022-11-08T02:40:49.985Z,100927.38
2022-11-08T02:43:16.671Z,100930.03
2022-11-08T02:45:43.240Z,100931.81
2022-11-08T02:48:10.059Z,100937.19
2022-11-08T02:50:36.786Z,100925.63
2022-11-08T02:53:03.554Z,100927.44
2022-11-08T02:55:30.483Z,100928.16
2022-11-08T02:57:57.250Z,100933.31
2022-11-08T03:00:23.913Z,100926.28
2022-11-08T03:02:54.566Z,100920.03
2022-11-08T03:05:21.825Z,100936.84
2022-11-08T03:07:48.618Z,100924.34
2022-11-08T03:10:16.252Z,100934.97
2022-11-08T03:12:43.098Z,100931.41
2022-11-08T03:15:11.884Z,100936.72
2022-11-08T03:17:38.739Z,100936.72
2022-11-08T03:20:07.173Z,100938.50
2022-11-08T03:22:33.726Z,100944.69
2022-11-08T03:25:00.215Z,100942.16
2022-11-08T03:27:27.105Z,100930.94
2022-11-08T03:29:53.582Z,100941.66
2022-11-08T03:32:20.061Z,100938.19
2022-11-08T03:34:46.567Z,100945.22
2022-11-08T03:37:13.061Z,100942.50
2022-11-08T03:39:39.537Z,100931.88
2022-11-08T03:42:06.432Z,100938.91
2022-11-08T03:44:33.012Z,100946.75
2022-11-08T03:47:00.329Z,100937.56
2022-11-08T03:49:26.892Z,100939.09
2022-11-08T03:51:54.642Z,100940.47
2022-11-08T03:54:21.214Z,100942.91
2022-11-08T03:56:47.958Z,100942.13
2022-11-08T03:59:14.543Z,100942.31
2022-11-08T04:01:41.281Z,100943.19
2022-11-08T04:04:07.985Z,100939.81
2022-11-08T04:06:34.517Z,100945.91
2022-11-08T04:09:01.041Z,100938.72
2022-11-08T04:11:46.006Z,100935.88
2022-11-08T04:14:31.130Z,100934.72
2022-11-08T04:16:57.660Z,100938.66
2022-11-08T04:19:42.556Z,100932.13
2022-11-08T04:22:11.642Z,100932.81
2022-11-08T04:24:38.147Z,100933.69
2022-11-08T04:27:04.647Z,100933.47
2022-11-08T04:29:31.260Z,100931.69
2022-11-08T04:31:57.770Z,100929.81
2022-11-08T04:34:24.256Z,100925.19
2022-11-08T04:36:50.737Z,100932.25
2022-11-08T04:39:17.352Z,100927.66
2022-11-08T04:41:43.866Z,100929.38
2022-11-08T04:44:10.435Z,100920.69
2022-11-08T04:46:36.932Z,100922.53
2022-11-08T04:49:04.587Z,100926.91
2022-11-08T04:51:32.861Z,100929.50
2022-11-08T04:54:01.398Z,100927.66
2022-11-08T04:56:29.846Z,100924.91
2022-11-08T04:58:58.564Z,100919.44
2022-11-08T05:01:28.063Z,100922.03
2022-11-08T05:03:55.345Z,100918.38
2022-11-08T05:06:24.598Z,100919.84
2022-11-08T05:08:51.632Z,100915.09
2022-11-08T05:11:22.461Z,100921.97
2022-11-08T05:13:50.236Z,100916.75
2022-11-08T05:16:22.387Z,100917.84
2022-11-08T05:18:49.106Z,100917.84
2022-11-08T05:21:36.057Z,100923.00
2022-11-08T05:24:04.925Z,100922.16
2022-11-08T05:26:34.964Z,100928.25
2022-11-08T05:29:01.598Z,100933.50
2022-11-08T05:31:28.353Z,100931.59
2022-11-08T05:33:54.887Z,100939.44
2022-11-08T05:36:21.593Z,100941.09
2022-11-08T05:38:48.306Z,100939.16
2022-11-08T05:41:20.596Z,100951.28
2022-11-08T05:43:49.398Z,100948.41
2022-11-08T05:46:17.484Z,100941.97
2022-11-08T05:48:44.718Z,100944.56
2022-11-08T05:51:12.210Z,100944.50
2022-11-08T05:53:39.972Z,100946.91
2022-11-08T05:56:06.878Z,100943.16
2022-11-08T05:58:34.949Z,100948.31
2022-11-08T06:01:01.873Z,100947.22
2022-11-08T06:03:29.603Z,100948.00
2022-11-08T06:06:00.966Z,100946.13
2022-11-08T06:08:27.507Z,100943.41
2022-11-08T06:10:54.013Z,100949.25
2022-11-08T06:13:20.521Z,100955.22
2022-11-08T06:15:46.984Z,100949.81
2022-11-08T06:18:13.485Z,100954.06
2022-11-08T06:20:40.046Z,100949.50
2022-11-08T06:23:06.592Z,100953.72
2022-11-08T06:25:33.396Z,100958.81
2022-11-08T06:28:00.777Z,100961.28
2022-11-08T06:30:27.253Z,100968.13
2022-11-08T06:32:53.775Z,100959.94
2022-11-08T06:35:20.277Z,100958.84
2022-11-08T06:37:47.030Z,100961.19
2022-11-08T06:40:13.971Z,100964.47
2022-11-08T06:42:40.483Z,100966.19
2022-11-08T06:45:07.419Z,100961.66
2022-11-08T06:47:33.979Z,100964.16
2022-11-08T06:50:00.494Z,100971.03
2022-11-08T06:52:26.973Z,100971.81
2022-11-08T06:54:53.625Z,100969.84
2022-11-08T06:57:20.114Z,100973.03
2022-11-08T06:59:46.685Z,100977.09
2022-11-08T07:02:13.244Z,100974.88
2022-11-08T07:04:40.207Z,100980.72
2022-11-08T07:07:06.957Z,100981.53
2022-11-08T07:09:33.856Z,100975.31
2022-11-08T07:12:00.374Z,100976.34
2022-11-08T07:14:26.911Z,100973.53
2022-11-08T07:16:53.417Z,100975.94
2022-11-08T07:19:19.909Z,100972.03
2022-11-08T07:21:46.664Z,100972.56
2022-11-08T07:24:13.189Z,100978.44
2022-11-08T07:26:39.712Z,100982.47
2022-11-08T07:29:06.244Z,100972.41
2022-11-08T07:31:32.761Z,100981.19
2022-11-08T07:33:59.284Z,100980.16
2022-11-08T07:36:25.796Z,100988.75
2022-11-08T07:38:52.472Z,100987.44
2022-11-08T07:41:19.022Z,100987.78
2022-11-08T07:43:45.505Z,100985.53
2022-11-08T07:46:12.037Z,100988.63
2022-11-08T07:48:38.604Z,100986.47
2022-11-08T07:51:05.193Z,100987.97
2022-11-08T07:53:31.730Z,100989.44
2022-11-08T07:55:58.418Z,100987.94
2022-11-08T07:58:25.490Z,100988.44
2022-11-08T08:00:52.164Z,100987.66
2022-11-08T08:03:19.079Z,100988.72
2022-11-08T08:05:46.029Z,100990.41
2022-11-08T08:08:13.515Z,100984.63
2022-11-08T08:10:41.263Z,100991.31
2022-11-08T08:13:07.872Z,100988.13
2022-11-08T08:15:34.492Z,101002.84
2022-11-08T08:18:02.833Z,100994.44
2022-11-08T08:20:30.646Z,100995.03
2022-11-08T08:22:57.898Z,100987.75
2022-11-08T08:25:25.151Z,100983.94
2022-11-08T08:27:56.812Z,100987.22
2022-11-08T08:30:24.849Z,100976.22
2022-11-08T08:33:21.940Z,100984.06
2022-11-08T08:35:39.255Z,100983.75
2022-11-08T08:38:06.988Z,100984.25
2022-11-08T08:40:34.177Z,100991.09
2022-11-08T08:43:03.187Z,100992.16
2022-11-08T08:45:30.558Z,100984.63
2022-11-08T08:47:59.642Z,100988.34
2022-11-08T08:50:28.545Z,100990.28
2022-11-08T08:52:59.848Z,100989.97
2022-11-08T08:55:26.894Z,100994.19
2022-11-08T08:57:54.019Z,101001.03
2022-11-08T09:03:09.829Z,101001.13
2022-11-08T09:05:37.522Z,101003.97
2022-11-08T09:08:04.302Z,101007.97
2022-11-08T09:10:30.936Z,101005.47
2022-11-08T09:12:57.427Z,101010.53
2022-11-08T09:15:24.072Z,101006.41
2022-11-08T09:17:54.340Z,101008.56
2022-11-08T09:20:21.241Z,101019.00
2022-11-08T09:22:47.801Z,101015.44
2022-11-08T09:25:15.554Z,101023.16
2022-11-08T09:27:42.299Z,101023.63
2022-11-08T09:30:09.586Z,101024.09
2022-11-08T09:32:59.050Z,101019.78
2022-11-08T09:35:23.305Z,101016.69
2022-11-08T09:37:50.176Z,101014.66
2022-11-08T09:40:51.065Z,101018.19
2022-11-08T09:44:04.321Z,101013.72
2022-11-08T09:46:53.595Z,101012.44
2022-11-08T09:49:42.925Z,101011.16
2022-11-08T09:52:16.209Z,101008.34
2022-11-08T09:54:46.610Z,101015.50
2022-11-08T09:57:43.842Z,101016.63
2022-11-08T10:00:12.887Z,101010.00
2022-11-08T10:02:39.582Z,101013.75
2022-11-08T10:05:12.825Z,101007.78
2022-11-08T10:08:02.463Z,101012.63
2022-11-08T10:10:40.722Z,101008.88
2022-11-08T10:13:37.596Z,101001.47
2022-11-08T10:16:06.992Z,101003.81
2022-11-08T10:18:40.369Z,100992.66
2022-11-08T10:21:39.232Z,100994.28
2022-11-08T10:24:23.162Z,100991.06
2022-11-08T10:26:52.164Z,100993.84
2022-11-08T10:29:28.398Z,100991.94
2022-11-08T10:32:05.579Z,100990.50
2022-11-08T10:34:41.295Z,100982.44
2022-11-08T10:37:13.465Z,100979.28
2022-11-08T10:39:48.095Z,100976.06
2022-11-08T10:42:33.134Z,100976.81
2022-11-08T10:44:59.693Z,100968.09
2022-11-08T10:47:29.393Z,100977.69
2022-11-08T10:50:00.906Z,100973.31
2022-11-08T10:53:02.372Z,100957.47
2022-11-08T10:55:33.445Z,100958.34
2022-11-08T10:58:01.250Z,100955.16
2022-11-08T11:00:30.609Z,100950.47
2022-11-08T11:03:06.101Z,100951.84
2022-11-08T11:05:38.182Z,100951.38
2022-11-08T11:08:14.895Z,100949.97
2022-11-08T11:10:47.591Z,100953.41
2022-11-08T11:16:05.222Z,100946.78
2022-11-08T11:18:37.148Z,100954.19
2022-11-08T11:21:21.932Z,100952.41
2022-11-08T11:23:51.954Z,100953.25
2022-11-08T11:26:30.232Z,100944.50
2022-11-08T11:29:05.989Z,100943.25
2022-11-08T11:31:36.488Z,100945.16
2022-11-08T11:34:18.184Z,100945.72
2022-11-08T11:37:10.777Z,100945.72
2022-11-08T11:39:57.601Z,100936.91
2022-11-08T11:42:44.517Z,100935.50
2022-11-08T11:45:34.758Z,100927.81
2022-11-08T11:48:05.105Z,100931.06
2022-11-08T11:50:37.271Z,100927.97
2022-11-08T11:53:22.818Z,100916.19
2022-11-08T11:56:01.566Z,100919.22
2022-11-08T11:58:40.209Z,100918.66
2022-11-08T12:01:40.658Z,100915.59
2022-11-08T12:04:40.957Z,100905.09
2022-11-08T12:07:29.419Z,100895.69
2022-11-08T12:10:11.086Z,100900.09
2022-11-08T12:12:59.036Z,100885.44
2022-11-08T12:16:00.745Z,100876.25
2022-11-08T12:18:42.140Z,100884.09
2022-11-08T12:21:33.329Z,100875.47
2022-11-08T12:24:44.730Z,100875.56
2022-11-08T12:27:30.422Z,100875.41
2022-11-08T12:30:16.186Z,100869.50
2022-11-08T12:33:08.556Z,100865.31
2022-11-08T12:36:01.265Z,100862.59
2022-11-08T12:38:54.941Z,100854.88
2022-11-08T12:42:00.105Z,100855.53
2022-11-08T12:45:07.814Z,100857.53
2022-11-08T12:47:56.025Z,100850.59
2022-11-08T12:50:50.000Z,100852.94
2022-11-08T12:53:40.301Z,100846.13
2022-11-08T12:56:15.437Z,100854.38
2022-11-08T12:58:46.989Z,100850.03
2022-11-08T13:01:15.942Z,100846.84
2022-11-08T13:03:42.857Z,100847.72
2022-11-08T13:06:37.180Z,100845.06
2022-11-08T13:09:47.675Z,100843.66
2022-11-08T13:12:32.714Z,100843.84
2022-11-08T13:15:00.833Z,100842.25
2022-11-08T13:17:28.665Z,100837.53
2022-11-08T13:20:06.381Z,100836.44
2022-11-08T13:22:32.842Z,100830.50
2022-11-08T13:25:00.606Z,100826.03
2022-11-08T13:27:44.213Z,100821.97
2022-11-08T13:30:16.789Z,100825.19
2022-11-08T13:32:43.265Z,100831.00
2022-11-08T13:35:15.835Z,100825.56
2022-11-08T13:37:54.216Z,100830.16
2022-11-08T13:40:29.786Z,100834.22
2022-11-08T13:43:18.529Z,100823.06
2022-11-08T13:45:45.745Z,100824.84
2022-11-08T13:48:36.128Z,100831.72
2022-11-08T13:51:23.082Z,100826.31
2022-11-08T13:54:01.302Z,100830.25
2022-11-08T13:56:43.098Z,100825.13
2022-11-08T13:59:31.560Z,100824.59
2022-11-08T14:01:58.433Z,100818.94
2022-11-08T14:04:32.958Z,100816.94
2022-11-08T14:07:05.481Z,100826.75
2022-11-08T14:10:13.800Z,100831.63
2022-11-08T14:12:46.473Z,100837.47
2022-11-08T14:15:24.873Z,100835.56
2022-11-08T14:18:23.369Z,100833.72
2022-11-08T14:20:50.425Z,100831.59
2022-11-08T14:23:20.369Z,100835.34
2022-11-08T14:26:11.575Z,100841.22
2022-11-08T14:28:41.045Z,100835.97
2022-11-08T14:31:24.281Z,100835.41
2022-11-08T14:33:50.932Z,100837.03
2022-11-08T14:36:19.681Z,100837.22
2022-11-08T14:38:49.207Z,100837.13
2022-11-08T14:41:29.569Z,100838.56
2022-11-08T14:43:59.278Z,100842.22
2022-11-08T14:46:31.518Z,100843.00
2022-11-08T14:49:07.491Z,100845.09
2022-11-08T14:51:34.457Z,100835.56
2022-11-08T14:54:01.421Z,100836.63
2022-11-08T14:56:36.810Z,100844.03
2022-11-08T14:59:06.914Z,100847.53
2022-11-08T15:01:34.985Z,100853.78
2022-11-08T15:04:14.505Z,100847.41
2022-11-08T15:06:50.133Z,100848.94
2022-11-08T15:09:43.192Z,100849.75
2022-11-08T15:12:17.335Z,100851.28
2022-11-08T15:15:02.233Z,100851.03
2022-11-08T15:17:39.747Z,100862.31
2022-11-08T15:20:20.187Z,100858.47
2022-11-08T15:22:48.461Z,100856.41
2022-11-08T15:25:28.466Z,100858.66
2022-11-08T15:27:57.711Z,100854.50
2022-11-08T15:30:30.238Z,100862.44
2022-11-08T15:32:56.933Z,100872.88
2022-11-08T15:35:31.876Z,100863.63
2022-11-08T15:38:21.335Z,100861.03
2022-11-08T15:40:52.776Z,100867.25
2022-11-08T15:43:45.314Z,100864.88
2022-11-08T15:46:38.210Z,100868.22
2022-11-08T15:49:36.710Z,100873.09
2022-11-08T15:52:04.254Z,100874.31
2022-11-08T15:54:30.745Z,100871.03
2022-11-08T15:56:57.386Z,100866.63
2022-11-08T15:59:28.549Z,100872.63
2022-11-08T16:01:58.598Z,100877.25
2022-11-08T16:04:26.919Z,100871.69
2022-11-08T16:06:55.571Z,100869.50
2022-11-08T16:09:22.130Z,100868.16
2022-11-08T16:11:49.713Z,100867.84
2022-11-08T16:14:19.993Z,100866.13
2022-11-08T16:16:46.928Z,100865.88
2022-11-08T16:19:23.601Z,100870.81
2022-11-08T16:21:51.614Z,100869.59
2022-11-08T16:24:18.385Z,100861.63
2022-11-08T16:26:45.923Z,100871.81
2022-11-08T16:29:24.289Z,100874.28
2022-11-08T16:31:51.391Z,100874.16
2022-11-08T16:34:18.354Z,100876.25
2022-11-08T16:36:46.489Z,100879.19
2022-11-08T16:39:18.368Z,100877.38
2022-11-08T16:41:45.413Z,100883.69
2022-11-08T16:44:12.204Z,100877.59
2022-11-08T16:46:39.329Z,100890.19
2022-11-08T16:49:07.230Z,100887.75
2022-11-08T16:51:34.074Z,100888.22
2022-11-08T16:54:02.745Z,100894.94
2022-11-08T16:56:29.360Z,100887.03
2022-11-08T16:58:55.890Z,100885.28
2022-11-08T17:01:32.433Z,100883.47
2022-11-08T17:03:58.953Z,100892.03
2022-11-08T17:06:25.696Z,100887.75
2022-11-08T17:08:52.310Z,100889.72
2022-11-08T17:11:21.567Z,100889.81
2022-11-08T17:13:48.672Z,100883.47
2022-11-08T17:16:15.946Z,100884.66
2022-11-08T17:18:42.811Z,100877.47
2022-11-08T17:21:38.237Z,100887.50
2022-11-08T17:23:58.745Z,100886.03
2022-11-08T17:26:25.311Z,100890.53
2022-11-08T17:28:56.232Z,100898.63
2022-11-08T17:31:22.804Z,100894.97
2022-11-08T17:33:50.553Z,100891.53
2022-11-08T17:36:17.106Z,100900.47
2022-11-08T17:38:43.651Z,100895.19
2022-11-08T17:41:15.035Z,100887.25
2022-11-08T17:43:42.625Z,100894.59
2022-11-08T17:46:10.770Z,100898.38
2022-11-08T17:48:39.446Z,100893.09
2022-11-08T17:51:06.185Z,100892.28
2022-11-08T17:53:33.762Z,100888.72
2022-11-08T17:56:02.001Z,100892.00
2022-11-08T17:58:29.084Z,100887.50
2022-11-08T18:00:58.024Z,100890.06
2022-11-08T18:03:26.072Z,100892.75
2022-11-08T18:06:16.478Z,100893.00
2022-11-08T18:08:43.373Z,100891.41
2022-11-08T18:11:09.938Z,100890.53
2022-11-08T18:13:36.488Z,100876.13
2022-11-08T18:16:08.763Z,100876.97
2022-11-08T18:18:36.769Z,100876.84
2022-11-08T18:21:03.733Z,100872.69
2022-11-08T18:23:30.208Z,100867.44
2022-11-08T18:25:56.720Z,100860.22
2022-11-08T18:28:24.258Z,100865.38
2022-11-08T18:30:51.103Z,100865.50
2022-11-08T18:33:20.179Z,100875.88
2022-11-08T18:35:47.103Z,100867.31
2022-11-08T18:38:14.039Z,100869.03
2022-11-08T18:40:44.645Z,100861.22
2022-11-08T18:43:11.421Z,100869.38
2022-11-08T18:45:38.047Z,100865.72
2022-11-08T18:48:04.706Z,100862.31
2022-11-08T18:50:31.297Z,100862.03
2022-11-08T18:53:03.098Z,100866.31
2022-11-08T18:55:31.399Z,100872.56
2022-11-08T18:57:57.888Z,100867.19
2022-11-08T19:00:24.561Z,100867.31
2022-11-08T19:02:51.128Z,100866.47
2022-11-08T19:05:17.853Z,100863.63
2022-11-08T19:07:44.354Z,100869.16
2022-11-08T19:10:10.936Z,100863.53
2022-11-08T19:12:37.457Z,100859.75
2022-11-08T19:15:04.206Z,100857.16
2022-11-08T19:17:31.896Z,100857.16
2022-11-08T19:19:58.403Z,100853.75
2022-11-08T19:22:24.956Z,100861.09
2022-11-08T19:24:51.426Z,100869.16
2022-11-08T19:27:18.006Z,100859.13
2022-11-08T19:29:44.484Z,100858.03
2022-11-08T19:32:10.956Z,100864.41
2022-11-08T19:34:37.645Z,100866.09
2022-11-08T19:37:04.272Z,100870.75
2022-11-08T19:39:30.863Z,100875.88
2022-11-08T19:41:58.717Z,100877.97
2022-11-08T19:44:25.614Z,100877.34
2022-11-08T19:46:52.123Z,100879.91
2022-11-08T19:49:19.721Z,100883.44
2022-11-08T19:51:46.198Z,100879.91
2022-11-08T19:54:14.597Z,100890.78
2022-11-08T19:57:04.002Z,100886.41
2022-11-08T19:59:27.576Z,100884.81
2022-11-08T20:01:54.160Z,100889.19
2022-11-08T20:04:20.996Z,100891.03
2022-11-08T20:06:47.746Z,100891.16
2022-11-08T20:09:14.324Z,100893.97
2022-11-08T20:11:42.300Z,100894.94
2022-11-08T20:14:11.649Z,100894.94
2022-11-08T20:16:41.835Z,100893.97
2022-11-08T20:19:13.922Z,100898.38
2022-11-08T20:21:42.280Z,100898.72
2022-11-08T20:24:10.440Z,100899.56
2022-11-08T20:26:38.492Z,100898.84
2022-11-08T20:29:07.326Z,100895.19
2022-11-08T20:31:34.099Z,100901.28
2022-11-08T20:34:01.676Z,100899.56
2022-11-08T20:36:33.146Z,100898.97
2022-11-08T20:39:05.622Z,100907.03
2022-11-08T20:41:35.696Z,100905.09
2022-11-08T20:44:02.634Z,100894.19
2022-11-08T20:46:29.705Z,100896.25
2022-11-08T20:49:00.361Z,100902.75
2022-11-08T20:51:27.769Z,100894.66
2022-11-08T20:53:55.970Z,100897.72
2022-11-08T20:56:23.548Z,100905.91
2022-11-08T20:58:51.308Z,100897.94
2022-11-08T21:01:21.108Z,100908.59
2022-11-08T21:03:48.341Z,100911.41
2022-11-08T21:06:17.963Z,100916.91
2022-11-08T21:09:07.486Z,100910.66
2022-11-08T21:11:34.487Z,100907.13
2022-11-08T21:14:01.827Z,100915.06
2022-11-08T21:16:31.956Z,100914.34
2022-11-08T21:19:01.994Z,100913.47
2022-11-08T21:21:29.708Z,100912.53
2022-11-08T21:23:56.610Z,100913.59
2022-11-08T21:26:23.621Z,100909.19
2022-11-08T21:28:51.009Z,100910.91
2022-11-08T21:31:17.987Z,100899.19
2022-11-08T21:33:44.546Z,100902.00
2022-11-08T21:36:11.296Z,100904.56
2022-11-08T21:38:39.678Z,100905.53
2022-11-08T21:41:09.304Z,100912.84
2022-11-08T21:43:37.357Z,100912.00
2022-11-08T21:46:21.414Z,100916.63
2022-11-08T21:48:53.390Z,100912.13
2022-11-08T21:51:20.191Z,100906.25
2022-11-08T21:53:53.911Z,100911.72
2022-11-08T21:56:24.854Z,100901.84
2022-11-08T21:58:53.011Z,100909.03
2022-11-08T22:01:22.159Z,100912.72
2022-11-08T22:03:50.838Z,100908.31
2022-11-08T22:06:17.424Z,100911.34
2022-11-08T22:08:43.970Z,100910.59
2022-11-08T22:11:10.541Z,100908.78
2022-11-08T22:13:37.117Z,100907.06
2022-11-08T22:16:03.878Z,100903.78
2022-11-08T22:18:58.225Z,100904.00
2022-11-08T22:21:35.562Z,100902.28
2022-11-08T22:24:02.295Z,100903.13
2022-11-08T22:26:28.825Z,100898.72
2022-11-08T22:28:55.370Z,100905.06
2022-11-08T22:31:21.925Z,100901.50
2022-11-08T22:33:48.730Z,100896.28
2022-11-08T22:36:16.491Z,100900.91
2022-11-08T22:38:43.053Z,100904.44
2022-11-08T22:41:09.657Z,100901.88
2022-11-08T22:43:36.343Z,100899.28
2022-11-08T22:46:03.433Z,100900.16
2022-11-08T22:48:30.005Z,100903.94
2022-11-08T22:50:57.451Z,100895.16
2022-11-08T22:53:24.134Z,100896.25
2022-11-08T22:55:50.718Z,100895.63
2022-11-08T22:58:17.590Z,100899.13
2022-11-08T23:00:44.129Z,100896.47
2022-11-08T23:03:11.109Z,100897.44
2022-11-08T23:05:37.666Z,100903.69
2022-11-08T23:08:04.443Z,100898.41
2022-11-08T23:10:31.032Z,100904.63
2022-11-08T23:13:16.315Z,100903.91
2022-11-08T23:16:01.273Z,100899.72
2022-11-08T23:18:27.865Z,100894.34
2022-11-08T23:21:13.496Z,100897.16
2022-11-08T23:23:58.777Z,100895.22
2022-11-08T23:26:45.970Z,100895.22
2022-11-08T23:29:30.787Z,100892.00
2022-11-08T23:31:57.604Z,100882.00
2022-11-08T23:34:24.184Z,100892.75
2022-11-08T23:36:50.730Z,100889.31
2022-11-08T23:39:17.342Z,100893.00
2022-11-08T23:42:02.305Z,100892.25
2022-11-08T23:44:28.740Z,100896.53
2022-11-08T23:46:56.417Z,100890.19
2022-11-08T23:49:22.969Z,100888.34
2022-11-08T23:51:50.043Z,100895.78
2022-11-08T23:54:16.931Z,100890.53
2022-11-08T23:56:44.229Z,100886.22
2022-11-08T23:59:11.800Z,100888.81
